createdAt,value
2018-04-17T00:01:45.675Z,11.70
2018-04-17T00:04:13.306Z,11.70
2018-04-17T00:06:40.899Z,11.70
2018-04-17T00:09:08.509Z,11.60
2018-04-17T00:11:36.162Z,11.60
2018-04-17T00:14:04.437Z,11.50
2018-04-17T00:16:32.019Z,11.50
2018-04-17T00:18:59.639Z,11.50
2018-04-17T00:21:27.201Z,11.50
2018-04-17T00:23:55.582Z,11.40
2018-04-17T00:26:23.962Z,11.40
2018-04-17T00:28:52.475Z,11.40
2018-04-17T00:31:20.072Z,11.40
2018-04-17T00:33:47.672Z,11.40
2018-04-17T00:36:15.296Z,11.40
2018-04-17T00:38:42.999Z,11.30
2018-04-17T00:41:10.692Z,11.30
2018-04-17T00:43:38.340Z,11.30
2018-04-17T00:46:05.936Z,11.20
2018-04-17T00:48:33.643Z,11.10
2018-04-17T00:51:01.228Z,10.90
2018-04-17T00:53:40.625Z,10.80
2018-04-17T00:56:09.008Z,10.70
2018-04-17T00:58:37.722Z,10.70
2018-04-17T01:01:05.328Z,10.70
2018-04-17T01:03:32.990Z,10.60
2018-04-17T01:06:00.602Z,10.60
2018-04-17T01:08:28.247Z,10.50
2018-04-17T01:10:56.622Z,10.50
2018-04-17T01:13:25.037Z,10.40
2018-04-17T01:15:52.669Z,10.40
2018-04-17T01:18:20.300Z,10.50
2018-04-17T01:20:47.883Z,10.50
2018-04-17T01:23:15.515Z,10.60
2018-04-17T01:25:43.133Z,10.50
2018-04-17T01:28:10.808Z,10.50
2018-04-17T01:30:38.457Z,10.50
2018-04-17T01:33:06.092Z,10.50
2018-04-17T01:35:33.704Z,10.50
2018-04-17T01:38:01.334Z,10.50
2018-04-17T01:40:28.967Z,10.50
2018-04-17T01:42:56.696Z,10.50
2018-04-17T01:45:24.412Z,10.40
2018-04-17T01:47:52.108Z,10.40
2018-04-17T01:50:19.784Z,10.40
2018-04-17T01:52:47.425Z,10.40
2018-04-17T01:55:15.113Z,10.50
2018-04-17T01:57:42.712Z,10.50
2018-04-17T02:00:11.119Z,10.50
2018-04-17T02:02:38.776Z,10.50
2018-04-17T02:05:07.405Z,10.50
2018-04-17T02:07:35.098Z,10.50
2018-04-17T02:10:02.840Z,10.50
2018-04-17T02:12:30.421Z,10.50
2018-04-17T02:14:58.134Z,10.40
2018-04-17T02:17:25.874Z,10.50
2018-04-17T02:19:53.901Z,10.40
2018-04-17T02:22:21.540Z,10.40
2018-04-17T02:24:49.207Z,10.30
2018-04-17T02:27:16.810Z,10.40
2018-04-17T02:29:44.434Z,10.30
2018-04-17T02:32:12.074Z,10.30
2018-04-17T02:34:39.686Z,10.30
2018-04-17T02:37:07.315Z,10.40
2018-04-17T02:39:35.002Z,10.30
2018-04-17T02:42:02.631Z,10.30
2018-04-17T02:44:30.224Z,10.30
2018-04-17T02:46:57.908Z,10.30
2018-04-17T02:49:26.260Z,10.10
2018-04-17T02:51:54.943Z,10.10
2018-04-17T02:54:22.610Z,10.20
2018-04-17T02:56:50.230Z,10.10
2018-04-17T02:59:17.870Z,10.10
2018-04-17T03:01:45.458Z,10.10
2018-04-17T03:04:13.582Z,10.10
2018-04-17T03:06:41.243Z,10.10
2018-04-17T03:09:08.877Z,10.10
2018-04-17T03:11:36.548Z,10.00
2018-04-17T03:14:04.208Z,10.00
2018-04-17T03:16:31.862Z,10.00
2018-04-17T03:18:59.535Z,10.10
2018-04-17T03:21:27.162Z,10.10
2018-04-17T03:23:54.789Z,10.10
2018-04-17T03:26:23.153Z,10.00
2018-04-17T03:28:50.970Z,10.00
2018-04-17T03:31:20.318Z,10.00
2018-04-17T03:33:47.886Z,10.00
2018-04-17T03:36:15.568Z,10.00
2018-04-17T03:38:43.214Z,10.00
2018-04-17T03:41:11.641Z,9.70
2018-04-17T03:43:39.273Z,9.70
2018-04-17T03:46:06.903Z,9.60
2018-04-17T03:48:34.519Z,9.50
2018-04-17T03:51:02.176Z,9.40
2018-04-17T03:53:30.264Z,9.30
2018-04-17T03:55:58.825Z,9.20
2018-04-17T03:58:26.407Z,9.10
2018-04-17T04:00:55.003Z,8.90
2018-04-17T04:03:22.601Z,8.90
2018-04-17T04:05:50.435Z,8.80
2018-04-17T04:08:18.060Z,8.90
2018-04-17T04:10:46.534Z,8.90
2018-04-17T04:13:14.580Z,8.90
2018-04-17T04:15:43.041Z,8.90
2018-04-17T04:18:22.660Z,8.80
2018-04-17T04:24:03.030Z,8.90
2018-04-17T04:26:31.388Z,8.90
2018-04-17T04:28:58.996Z,9.00
2018-04-17T04:31:26.643Z,9.00
2018-04-17T04:33:54.326Z,8.90
2018-04-17T04:36:22.028Z,8.90
2018-04-17T04:38:50.392Z,8.70
2018-04-17T04:41:18.024Z,8.70
2018-04-17T04:43:45.634Z,8.60
2018-04-17T04:46:14.159Z,8.50
2018-04-17T04:48:41.826Z,8.50
2018-04-17T04:51:09.745Z,8.50
2018-04-17T04:53:38.160Z,8.50
2018-04-17T04:56:05.856Z,8.50
2018-04-17T04:58:33.491Z,8.40
2018-04-17T05:01:01.183Z,8.40
2018-04-17T05:03:28.822Z,8.40
2018-04-17T05:05:56.475Z,8.40
2018-04-17T05:08:24.135Z,8.40
2018-04-17T05:10:51.772Z,8.50
2018-04-17T05:13:19.477Z,8.50
2018-04-17T05:15:47.565Z,8.50
2018-04-17T05:18:15.233Z,8.60
2018-04-17T05:20:43.711Z,9.00
2018-04-17T05:23:11.436Z,8.90
2018-04-17T05:25:39.109Z,9.20
2018-04-17T05:28:06.748Z,9.50
2018-04-17T05:30:34.416Z,9.80
2018-04-17T05:33:02.490Z,10.10
2018-04-17T05:35:30.133Z,10.10
2018-04-17T05:37:57.774Z,10.10
2018-04-17T05:40:25.430Z,10.20
2018-04-17T05:42:53.138Z,10.10
2018-04-17T05:45:20.903Z,10.00
2018-04-17T05:47:48.903Z,10.40
2018-04-17T05:50:17.303Z,11.00
2018-04-17T05:52:44.884Z,11.00
2018-04-17T05:55:12.572Z,11.40
2018-04-17T05:57:40.974Z,11.90
2018-04-17T06:00:08.593Z,11.90
2018-04-17T06:02:36.573Z,12.00
2018-04-17T06:05:04.292Z,12.40
2018-04-17T06:07:32.785Z,12.80
2018-04-17T06:10:01.435Z,13.00
2018-04-17T06:12:29.121Z,13.00
2018-04-17T06:14:57.608Z,14.00
2018-04-17T06:17:25.995Z,14.20
2018-04-17T06:19:53.633Z,14.10
2018-04-17T06:22:22.035Z,14.30
2018-04-17T06:24:49.712Z,14.30
2018-04-17T06:27:18.156Z,13.60
2018-04-17T06:29:45.839Z,13.60
2018-04-17T06:32:13.477Z,13.50
2018-04-17T06:34:41.390Z,13.20
2018-04-17T06:37:09.289Z,13.10
2018-04-17T06:39:36.963Z,13.10
2018-04-17T06:42:04.817Z,13.10
2018-04-17T06:44:32.423Z,13.00
2018-04-17T06:47:00.168Z,13.10
2018-04-17T06:49:27.888Z,13.00
2018-04-17T06:51:55.534Z,13.10
2018-04-17T06:54:23.942Z,13.30
2018-04-17T06:56:51.541Z,13.30
2018-04-17T06:59:19.927Z,13.30
2018-04-17T07:01:49.422Z,13.40
2018-04-17T07:04:17.441Z,13.30
2018-04-17T07:06:45.137Z,13.50
2018-04-17T07:09:12.811Z,13.50
2018-04-17T07:11:40.476Z,13.60
2018-04-17T07:14:08.129Z,13.60
2018-04-17T07:16:35.764Z,13.50
2018-04-17T07:19:03.365Z,13.60
2018-04-17T07:21:31.021Z,13.70
2018-04-17T07:23:58.649Z,13.90
2018-04-17T07:26:26.332Z,14.00
2018-04-17T07:28:53.950Z,14.10
2018-04-17T07:31:21.750Z,14.20
2018-04-17T07:33:49.392Z,14.20
2018-04-17T07:36:17.081Z,14.20
2018-04-17T07:38:44.735Z,14.20
2018-04-17T07:41:12.377Z,14.20
2018-04-17T07:43:39.986Z,14.30
2018-04-17T07:46:07.835Z,14.40
2018-04-17T07:48:47.600Z,14.60
2018-04-17T07:51:15.230Z,14.80
2018-04-17T07:53:43.066Z,14.80
2018-04-17T07:56:10.651Z,14.90
2018-04-17T07:58:38.738Z,15.00
2018-04-17T08:01:06.384Z,14.90
2018-04-17T08:03:34.057Z,15.20
2018-04-17T08:06:01.687Z,15.10
2018-04-17T08:08:30.097Z,15.40
2018-04-17T08:10:57.742Z,15.40
2018-04-17T08:13:25.346Z,15.50
2018-04-17T08:15:52.983Z,15.60
2018-04-17T08:18:20.665Z,15.70
2018-04-17T08:20:48.279Z,15.80
2018-04-17T08:23:16.658Z,15.70
2018-04-17T08:25:45.163Z,15.80
2018-04-17T08:28:13.378Z,15.80
2018-04-17T08:30:41.021Z,15.90
2018-04-17T08:33:08.666Z,16.10
2018-04-17T08:35:37.273Z,16.20
2018-04-17T08:38:04.953Z,16.30
2018-04-17T08:40:32.705Z,16.40
2018-04-17T08:43:00.380Z,16.50
2018-04-17T08:45:28.967Z,16.50
2018-04-17T08:47:57.342Z,16.70
2018-04-17T08:50:24.917Z,16.70
2018-04-17T08:52:53.285Z,16.90
2018-04-17T08:55:20.884Z,16.80
2018-04-17T08:57:48.512Z,17.00
2018-04-17T09:00:16.189Z,17.00
2018-04-17T09:02:43.768Z,17.10
2018-04-17T09:05:11.388Z,17.30
2018-04-17T09:07:39.090Z,17.40
2018-04-17T09:10:06.822Z,17.40
2018-04-17T09:12:34.419Z,17.50
2018-04-17T09:15:02.049Z,17.60
2018-04-17T09:17:30.694Z,17.60
2018-04-17T09:19:58.316Z,17.60
2018-04-17T09:22:26.149Z,17.80
2018-04-17T09:24:54.547Z,17.70
2018-04-17T09:27:22.980Z,18.00
2018-04-17T09:29:50.836Z,17.90
2018-04-17T09:32:18.470Z,18.10
2018-04-17T09:34:46.090Z,18.20
2018-04-17T09:37:13.712Z,18.30
2018-04-17T09:39:41.355Z,18.30
2018-04-17T09:42:09.727Z,18.40
2018-04-17T09:44:38.120Z,18.50
2018-04-17T09:47:05.753Z,18.50
2018-04-17T09:49:33.491Z,18.40
2018-04-17T09:52:01.154Z,18.50
2018-04-17T09:54:28.757Z,18.50
2018-04-17T09:56:57.176Z,18.70
2018-04-17T09:59:24.790Z,18.70
2018-04-17T10:01:53.230Z,18.60
2018-04-17T10:04:20.802Z,18.60
2018-04-17T10:06:48.424Z,18.50
2018-04-17T10:09:16.074Z,18.60
2018-04-17T10:11:44.507Z,18.70
2018-04-17T10:14:12.245Z,18.60
2018-04-17T10:16:40.102Z,18.60
2018-04-17T10:19:07.687Z,18.80
2018-04-17T10:21:35.475Z,18.90
2018-04-17T10:24:03.112Z,19.00
2018-04-17T10:26:30.701Z,19.10
2018-04-17T10:28:58.373Z,19.30
2018-04-17T10:31:26.072Z,19.50
2018-04-17T10:33:53.685Z,19.50
2018-04-17T10:36:21.290Z,19.50
2018-04-17T10:38:49.915Z,19.60
2018-04-17T10:41:17.545Z,19.60
2018-04-17T10:43:45.142Z,19.70
2018-04-17T10:46:12.781Z,19.90
2018-04-17T10:48:40.406Z,19.80
2018-04-17T10:51:08.063Z,19.70
2018-04-17T10:53:35.693Z,19.80
2018-04-17T10:56:04.141Z,19.80
2018-04-17T10:58:31.800Z,19.80
2018-04-17T11:00:59.467Z,19.80
2018-04-17T11:03:28.069Z,19.80
2018-04-17T11:05:55.848Z,19.80
2018-04-17T11:08:23.473Z,19.70
2018-04-17T11:10:51.165Z,19.80
2018-04-17T11:13:18.761Z,19.90
2018-04-17T11:15:46.419Z,20.00
2018-04-17T11:18:14.050Z,20.20
2018-04-17T11:20:41.723Z,20.20
2018-04-17T11:23:09.413Z,20.30
2018-04-17T11:25:37.871Z,19.80
2018-04-17T11:28:05.596Z,19.80
2018-04-17T11:30:33.251Z,19.90
2018-04-17T11:33:01.337Z,20.10
2018-04-17T11:35:29.005Z,20.10
2018-04-17T11:37:56.647Z,20.10
2018-04-17T11:40:24.344Z,20.00
2018-04-17T11:42:52.075Z,19.90
2018-04-17T11:45:19.808Z,19.90
2018-04-17T11:47:48.210Z,20.30
2018-04-17T11:50:16.086Z,20.30
2018-04-17T11:52:43.712Z,20.40
2018-04-17T11:55:11.372Z,20.20
2018-04-17T11:57:39.032Z,20.20
2018-04-17T12:00:07.417Z,20.30
2018-04-17T12:02:35.824Z,20.40
2018-04-17T12:05:03.396Z,20.30
2018-04-17T12:07:31.011Z,20.40
2018-04-17T12:09:58.705Z,20.40
2018-04-17T12:12:26.341Z,20.60
2018-04-17T12:14:54.673Z,20.40
2018-04-17T12:17:22.307Z,20.40
2018-04-17T12:19:49.936Z,20.40
2018-04-17T12:22:18.309Z,20.30
2018-04-17T12:24:46.722Z,20.40
2018-04-17T12:27:14.339Z,20.50
2018-04-17T12:29:42.863Z,20.80
2018-04-17T12:32:10.577Z,20.80
2018-04-17T12:34:38.202Z,21.00
2018-04-17T12:37:05.840Z,20.90
2018-04-17T12:39:34.195Z,20.90
2018-04-17T12:42:01.863Z,20.90
2018-04-17T12:44:30.205Z,20.90
2018-04-17T12:46:57.839Z,20.90
2018-04-17T12:49:25.476Z,20.60
2018-04-17T12:51:53.881Z,21.00
2018-04-17T12:54:22.456Z,21.00
2018-04-17T12:56:50.100Z,21.20
2018-04-17T12:59:18.558Z,21.40
2018-04-17T13:01:46.157Z,21.40
2018-04-17T13:04:13.903Z,21.60
2018-04-17T13:06:41.554Z,21.60
2018-04-17T13:09:10.031Z,21.70
2018-04-17T13:11:37.632Z,21.60
2018-04-17T13:14:05.795Z,21.60
2018-04-17T13:16:33.467Z,21.90
2018-04-17T13:19:01.048Z,21.90
2018-04-17T13:21:28.795Z,22.10
2018-04-17T13:23:56.447Z,22.20
2018-04-17T13:26:24.159Z,22.20
2018-04-17T13:28:51.819Z,22.10
2018-04-17T13:31:19.461Z,22.20
2018-04-17T13:33:47.039Z,22.10
2018-04-17T13:36:14.738Z,22.00
2018-04-17T13:38:43.169Z,21.90
2018-04-17T13:41:10.786Z,21.80
2018-04-17T13:43:39.157Z,21.80
2018-04-17T13:46:08.352Z,21.90
2018-04-17T13:48:36.753Z,22.00
2018-04-17T13:51:05.254Z,21.90
2018-04-17T13:53:32.903Z,21.90
2018-04-17T13:56:00.540Z,22.00
2018-04-17T13:58:28.162Z,22.10
2018-04-17T14:00:55.838Z,22.20
2018-04-17T14:03:23.478Z,22.20
2018-04-17T14:05:51.145Z,22.20
2018-04-17T14:08:19.552Z,22.30
2018-04-17T14:10:47.185Z,22.30
2018-04-17T14:13:14.828Z,22.40
2018-04-17T14:15:42.455Z,22.30
2018-04-17T14:18:10.177Z,22.40
2018-04-17T14:20:37.846Z,22.40
2018-04-17T14:23:05.610Z,22.20
2018-04-17T14:25:33.248Z,22.10
2018-04-17T14:28:01.013Z,22.20
2018-04-17T14:30:28.686Z,22.30
2018-04-17T14:32:56.509Z,22.30
2018-04-17T14:35:25.017Z,22.40
2018-04-17T14:37:52.590Z,22.30
2018-04-17T14:40:20.260Z,22.30
2018-04-17T14:42:47.833Z,22.10
2018-04-17T14:45:15.498Z,22.10
2018-04-17T14:47:43.340Z,22.10
2018-04-17T14:50:10.974Z,22.10
2018-04-17T14:52:38.606Z,22.10
2018-04-17T14:55:06.292Z,22.20
2018-04-17T14:57:34.711Z,22.30
2018-04-17T15:00:02.472Z,22.30
2018-04-17T15:02:30.235Z,22.30
2018-04-17T15:04:57.856Z,22.20
2018-04-17T15:07:26.287Z,22.20
2018-04-17T15:09:53.934Z,22.20
2018-04-17T15:12:21.595Z,22.30
2018-04-17T15:14:49.196Z,22.40
2018-04-17T15:17:16.816Z,22.40
2018-04-17T15:19:44.487Z,22.40
2018-04-17T15:22:12.177Z,22.50
2018-04-17T15:24:39.888Z,22.20
2018-04-17T15:27:07.535Z,22.30
2018-04-17T15:29:35.931Z,22.40
2018-04-17T15:32:03.540Z,22.40
2018-04-17T15:34:32.085Z,22.40
2018-04-17T15:36:59.744Z,22.40
2018-04-17T15:39:27.362Z,22.40
2018-04-17T15:41:55.753Z,22.20
2018-04-17T15:44:25.316Z,22.30
2018-04-17T15:46:53.887Z,22.30
2018-04-17T15:49:21.559Z,22.30
2018-04-17T15:51:49.253Z,22.40
2018-04-17T15:54:16.922Z,22.50
2018-04-17T15:56:45.297Z,22.70
2018-04-17T15:59:13.030Z,22.70
2018-04-17T16:01:40.782Z,22.80
2018-04-17T16:04:08.424Z,22.90
2018-04-17T16:06:36.112Z,22.80
2018-04-17T16:09:03.709Z,22.90
2018-04-17T16:11:32.129Z,23.10
2018-04-17T16:13:59.772Z,23.10
2018-04-17T16:16:27.396Z,23.20
2018-04-17T16:18:55.057Z,23.00
2018-04-17T16:21:22.700Z,22.90
2018-04-17T16:23:51.065Z,22.90
2018-04-17T16:26:18.700Z,22.90
2018-04-17T16:28:46.388Z,22.70
2018-04-17T16:31:14.052Z,22.50
2018-04-17T16:33:42.562Z,22.30
2018-04-17T16:36:10.484Z,22.30
2018-04-17T16:38:38.091Z,22.30
2018-04-17T16:41:05.923Z,22.20
2018-04-17T16:43:34.151Z,22.30
2018-04-17T16:46:02.523Z,22.10
2018-04-17T16:48:30.115Z,22.10
2018-04-17T16:50:58.497Z,22.20
2018-04-17T16:53:26.891Z,22.20
2018-04-17T16:55:54.487Z,22.10
2018-04-17T16:58:22.098Z,22.30
2018-04-17T17:00:49.916Z,22.30
2018-04-17T17:03:17.484Z,22.40
2018-04-17T17:05:45.272Z,22.40
2018-04-17T17:08:13.614Z,22.30
2018-04-17T17:10:41.295Z,22.30
2018-04-17T17:13:08.846Z,22.20
2018-04-17T17:15:36.509Z,22.30
2018-04-17T17:18:05.051Z,22.30
2018-04-17T17:20:32.665Z,22.30
2018-04-17T17:23:00.566Z,22.20
2018-04-17T17:25:28.211Z,22.10
2018-04-17T17:27:55.943Z,21.80
2018-04-17T17:30:23.592Z,21.80
2018-04-17T17:32:51.382Z,21.90
2018-04-17T17:35:19.127Z,22.10
2018-04-17T17:37:46.928Z,22.30
2018-04-17T17:40:14.542Z,22.70
2018-04-17T17:42:43.065Z,22.90
2018-04-17T17:45:10.772Z,23.00
2018-04-17T17:47:38.421Z,23.20
2018-04-17T17:50:06.100Z,23.40
2018-04-17T17:52:34.447Z,23.30
2018-04-17T17:55:03.875Z,22.90
2018-04-17T17:57:31.586Z,22.90
2018-04-17T18:00:00.091Z,22.70
2018-04-17T18:02:28.474Z,22.30
2018-04-17T18:04:57.703Z,22.10
2018-04-17T18:07:26.207Z,22.10
2018-04-17T18:09:53.814Z,21.90
2018-04-17T18:12:21.595Z,21.70
2018-04-17T18:14:49.927Z,21.40
2018-04-17T18:17:17.666Z,21.40
2018-04-17T18:19:45.307Z,21.30
2018-04-17T18:22:13.701Z,21.10
2018-04-17T18:24:41.571Z,20.90
2018-04-17T18:27:09.230Z,20.70
2018-04-17T18:29:36.827Z,20.50
2018-04-17T18:32:05.330Z,20.30
2018-04-17T18:34:33.727Z,20.00
2018-04-17T18:37:01.452Z,20.00
2018-04-17T18:39:29.863Z,19.80
2018-04-17T18:41:58.239Z,19.60
2018-04-17T18:44:26.774Z,19.60
2018-04-17T18:46:55.252Z,19.40
2018-04-17T18:49:23.281Z,19.40
2018-04-17T18:51:50.941Z,19.30
2018-04-17T18:54:19.653Z,19.30
2018-04-17T18:56:47.277Z,19.20
2018-04-17T18:59:15.781Z,19.00
2018-04-17T19:01:43.466Z,19.00
2018-04-17T19:04:11.094Z,19.00
2018-04-17T19:06:38.716Z,18.90
2018-04-17T19:09:06.439Z,18.80
2018-04-17T19:11:34.051Z,18.80
2018-04-17T19:14:02.197Z,18.70
2018-04-17T19:16:30.158Z,18.60
2018-04-17T19:18:57.766Z,18.50
2018-04-17T19:21:25.468Z,18.50
2018-04-17T19:23:53.126Z,18.40
2018-04-17T19:26:20.974Z,18.30
2018-04-17T19:28:48.628Z,18.30
2018-04-17T19:31:16.293Z,18.20
2018-04-17T19:33:44.889Z,18.00
2018-04-17T19:36:12.542Z,18.00
2018-04-17T19:38:40.180Z,18.00
2018-04-17T19:41:08.551Z,18.00
2018-04-17T19:43:36.165Z,18.00
2018-04-17T19:46:03.829Z,17.90
2018-04-17T19:48:31.483Z,17.90
2018-04-17T19:50:59.183Z,17.80
2018-04-17T19:53:26.812Z,17.80
2018-04-17T19:55:54.452Z,17.70
2018-04-17T19:58:22.819Z,17.60
2018-04-17T20:00:51.228Z,17.50
2018-04-17T20:03:18.845Z,17.40
2018-04-17T20:05:46.498Z,17.40
2018-04-17T20:08:14.791Z,17.30
2018-04-17T20:10:42.487Z,17.40
2018-04-17T20:13:10.197Z,17.30
2018-04-17T20:15:38.424Z,17.30
2018-04-17T20:18:07.043Z,17.20
2018-04-17T20:20:34.737Z,17.20
2018-04-17T20:23:02.296Z,17.10
2018-04-17T20:25:29.957Z,17.10
2018-04-17T20:27:57.605Z,17.00
2018-04-17T20:30:25.319Z,17.00
2018-04-17T20:32:53.010Z,17.00
2018-04-17T20:35:20.638Z,17.00
2018-04-17T20:37:48.245Z,16.90
2018-04-17T20:40:15.906Z,16.80
2018-04-17T20:42:43.571Z,16.80
2018-04-17T20:45:11.289Z,16.70
2018-04-17T20:47:38.903Z,16.60
2018-04-17T20:50:06.546Z,16.50
2018-04-17T20:52:34.175Z,16.50
2018-04-17T20:55:01.776Z,16.40
2018-04-17T20:57:30.197Z,16.30
2018-04-17T20:59:57.800Z,16.20
2018-04-17T21:02:25.874Z,16.10
2018-04-17T21:04:55.738Z,16.10
2018-04-17T21:07:24.470Z,16.00
2018-04-17T21:09:52.065Z,16.00
2018-04-17T21:12:20.517Z,16.00
2018-04-17T21:14:48.141Z,15.90
2018-04-17T21:17:15.801Z,15.90
2018-04-17T21:19:44.155Z,15.90
2018-04-17T21:22:11.789Z,15.90
2018-04-17T21:24:39.678Z,15.80
2018-04-17T21:27:07.289Z,15.80
2018-04-17T21:29:34.889Z,15.70
2018-04-17T21:32:02.533Z,15.70
2018-04-17T21:34:30.260Z,15.60
2018-04-17T21:36:57.950Z,15.50
2018-04-17T21:39:25.599Z,15.50
2018-04-17T21:41:53.172Z,15.50
2018-04-17T21:44:20.768Z,15.40
2018-04-17T21:46:48.460Z,15.40
2018-04-17T21:49:16.851Z,15.40
2018-04-17T21:51:45.218Z,15.40
2018-04-17T21:54:13.580Z,15.30
2018-04-17T21:56:42.115Z,15.30
2018-04-17T21:59:09.822Z,15.30
2018-04-17T22:01:37.441Z,15.20
2018-04-17T22:04:05.063Z,15.20
2018-04-17T22:06:33.791Z,15.20
2018-04-17T22:09:01.491Z,15.10
2018-04-17T22:11:29.115Z,15.10
2018-04-17T22:13:56.754Z,15.10
2018-04-17T22:16:24.393Z,15.10
2018-04-17T22:18:52.746Z,14.90
2018-04-17T22:21:20.439Z,14.90
2018-04-17T22:23:48.013Z,14.90
2018-04-17T22:26:15.631Z,14.80
2018-04-17T22:28:43.331Z,14.70
2018-04-17T22:31:10.950Z,14.70
2018-04-17T22:33:38.568Z,14.60
2018-04-17T22:36:06.224Z,14.60
2018-04-17T22:38:34.460Z,14.50
2018-04-17T22:41:02.109Z,14.50
2018-04-17T22:43:29.767Z,14.50
2018-04-17T22:45:57.391Z,14.40
2018-04-17T22:48:24.989Z,14.40
2018-04-17T22:50:52.615Z,14.30
2018-04-17T22:53:20.237Z,14.30
2018-04-17T22:55:48.632Z,14.20
2018-04-17T22:58:17.022Z,14.20
2018-04-17T23:00:45.382Z,14.10
2018-04-17T23:03:13.808Z,14.10
2018-04-17T23:05:41.403Z,14.10
2018-04-17T23:08:09.674Z,14.00
2018-04-17T23:10:37.249Z,14.00
2018-04-17T23:13:04.853Z,14.00
2018-04-17T23:15:33.697Z,14.00
2018-04-17T23:18:02.032Z,13.90
2018-04-17T23:20:29.643Z,13.90
2018-04-17T23:22:57.297Z,13.90
2018-04-17T23:25:24.929Z,13.90
2018-04-17T23:27:52.561Z,13.80
2018-04-17T23:30:20.679Z,13.80
2018-04-17T23:32:48.263Z,13.70
2018-04-17T23:35:16.440Z,13.70
2018-04-17T23:37:44.810Z,13.60
2018-04-17T23:40:12.479Z,13.60
2018-04-17T23:42:40.852Z,13.40
2018-04-17T23:45:08.504Z,13.50
2018-04-17T23:47:36.099Z,13.40
2018-04-17T23:50:04.482Z,13.30
2018-04-17T23:52:32.925Z,13.20
2018-04-17T23:55:00.546Z,13.20
2018-04-17T23:57:28.411Z,13.10
2018-04-17T23:59:55.987Z,13.10
